AirNav   Pilot Hours Calculator
 
 1390 users online  

64GA Big 'T' Airport
Senoia, Georgia, USA

GOING TO SENOIA?


FAA INFORMATION EFFECTIVE 25 FEBRUARY 2021

Location

FAA Identifier: 64GA
Lat/Long: 33-17-00.4290N 084-32-19.7370W
33-17.007150N 084-32.328950W
33.2834525,-84.5388158
(estimated)
Elevation: 900 ft. / 274 m (estimated)
Variation: 01W (1985)
From city: 1 mile SE of SENOIA, GA
Time zone: UTC -5 (UTC -4 during Daylight Saving Time)
Zip code: 30276

Airport Operations

Airport use: Private use. Permission required prior to landing
Activation date: 01/1987
Control tower: no
ARTCC: ATLANTA CENTER
FSS: MACON FLIGHT SERVICE STATION
Attendance: UNATNDD
Wind indicator: yes
Segmented circle: yes

Airport Communications

WX ASOS at FFC (5 nm N): 118.525 (770-487-1610)
WX AWOS-3PT at CCO (12 nm W): 118.975 (770-254-1617)
WX AWOS-3 at HMP (12 nm NE): 124.825 (770-707-1719)
WX AWOS-3 at 6A2 (14 nm E): 119.750 (770-227-3934)

Nearby radio navigation aids

VOR radial/distance  VOR name  Freq  Var
ATLr199/21.4ATLANTA VORTAC116.9005W
LGCr066/36.3LAGRANGE VORTAC115.6001E
PDKr204/37.5PEACHTREE VOR/DME116.6005W

 
NDB name  Hdg/Dist  Freq  Var  ID
PECAT253/2.831605WFFC ..-. ..-. -.-.
COWETA COUNTY083/8.923403WEQQ . --.- --.-
PINE MOUNTAIN035/31.327203WPIM .--. .. --
CARROLLTON124/34.227804WGPQ --. .--. --.-

Airport Services

Runway Information

Runway 16/34

Dimensions: 2050 x 150 ft. / 625 x 46 m
Surface: turf
RUNWAY 16  RUNWAY 34
Traffic pattern: rightleft

Airport Ownership and Management from official FAA records

Ownership: Privately-owned
Owner: BIG T HOMEOWNERS ASSOC
65 TINSLEY WAY
SENOIA, GA 30276
Phone 770-599-4567
Manager: JIM RENWICK
65 TINSLEY WAY
SENOIA, GA 30276
Phone 770-599-4567

Airport Operational Statistics

Aircraft based on the field: 20
Single engine airplanes: 20
    

Additional Remarks

FOR CD CTC ATLANTA APCH AT 678-364-6131.
(CONTACT TITLE) AMGR CELL PHONE: 770-827-5952

Instrument Procedures

There are no published instrument procedures at 64GA.

Some nearby airports with instrument procedures:

KFFC - Atlanta Regional Airport-Falcon Field (5 nm N)
KCCO - Newnan Coweta County Airport (12 nm W)
KHMP - Atlanta Speedway Airport (12 nm NE)
6A2 - Griffin-Spalding County Airport (14 nm E)
KATL - Hartsfield - Jackson Atlanta International Airport (22 nm N)
 
Loc | Ops | Rwys | IFR | FBO | Links
Com | Nav | Svcs | Stats | Notes
Area around 64GA (Big 'T' Airport)
 
Road maps at: MapQuest Bing Google
 
Aerial photo
WARNING: Photo may not be current or correct
Aerial photo of 64GA (Big 'T' Airport)
Photo taken 04-Sep-2015
looking west.

Do you have a better or more recent aerial photo of Big 'T' Airport that you would like to share? If so, please send us your photo.

 
Sectional chart

 
Airport distance calculator
Flying to Big 'T' Airport? Find the distance to fly.

From to 64GA

Sunrise and sunset
Times for 05-Mar-2021
 Local
(UTC-5)
 Zulu
(UTC)
Morning civil twilight06:3811:38
Sunrise07:0212:02
Sunset18:3723:37
Evening civil twilight19:0200:02

Current date and time
Zulu (UTC)  05-Mar-2021 16:25:54
Local (UTC-5)  05-Mar-2021 11:25:54
 
METAR
KFFC 
4nm N 
051553Z AUTO VRB04KT 10SM CLR 16/M03 A3011 RMK AO2 SLP199 T01561028
KCCO 
12nm W 
051555Z AUTO 02008KT 10SM CLR 16/M06 A3011 RMK AO2 T01611058
KHMP 
12nm NE 
051555Z AUTO 31007KT 280V010 10SM CLR 16/M04 A3014 RMK AO2 T01551041
K6A2 
14nm E 
051555Z AUTO 34004KT 10SM CLR 15/M03 A3011 RMK AO2
TAF
KATL 
21nm N 
051345Z 0514/0618 33008KT P6SM FEW250 FM051800 35010KT P6SM BKN250 FM060000 35006KT P6SM BKN100 FM060600 35005KT P6SM BKN060 FM061200 07007KT P6SM SCT050 BKN100
NOTAMs
Click for the latest NOTAMs
NOTAMs are issued by the DoD/FAA and will open in a separate window not controlled by AirNav.

 

 
 

Would you like to see your business listed on this page?

 If your business provides an interesting product or service to pilots, flight crews, aircraft, or users of the Big 'T' Airport, you should consider listing it here.  To start the listing process, click on the button below
 
Add a business
 

Other Pages about Big 'T' Airport

Update a link
 
Copyright © AirNav, LLC. All rights reserved. Privacy Policy  Contact